Time;durP1;ratioP1;P1;durP2;ratioP2;P2;SDS_P1;SDS_P2;PMS_P1;PMS_P2;Temp;Humidity;BMP_temperature;BMP_pressure;BME280_temperature;BME280_humidity;BME280_pressure;Samples;Min_cycle;Max_cycle;Signal;HPM_P1;HPM_P2
2022/08/24 00:48:19;;;;;;;;;;;;;;;;;;2257706;54;1912;-71
2022/08/24 00:50:56;;;;;;;;;;;;;;;;;;2193202;67;1104;-71
2022/08/24 00:53:33;;;;;;;;;;;;;;;;;;2194245;59;2334;-71
2022/08/24 00:56:07;;;;;;;;;;;;;;;;;;2198009;59;1862;-72
2022/08/24 00:58:43;;;;;;;;;;;;;;;;;;2195722;59;1495;-71
2022/08/24 01:01:16;;;;;;;;;;;;;;;;;;2218543;53;2126;-64
2022/08/24 01:03:53;;;;;;;;;;;;;;;;;;2195754;59;1996;-63
2022/08/24 01:06:26;;;;;;;;;;;;;;;;;;2195058;67;1294;-63
2022/08/24 01:11:39;;;;;;;;;;;;;;;;;;2247568;54;1640;-71
2022/08/24 01:14:12;;;;;;;;;;;;;;;;;;2193132;59;1139;-72
2022/08/24 01:19:40;;;;;;;;;;;;;;;;;;2194959;67;1205;-71
2022/08/24 01:22:22;;;;;;;;;;;;;;;;;;2194356;67;1920;-71
2022/08/24 01:24:58;;;;;;;;;;;;;;;;;;2194339;59;1257;-71
2022/08/24 01:27:32;;;;;;;;;;;;;;;;;;2194649;67;1240;-71
2022/08/24 01:30:08;;;;;;;;;;;;;;;;;;2192117;59;1231;-71
2022/08/24 01:32:42;;;;;;;;;;;;;;;;;;2194778;67;1120;-71
2022/08/24 01:35:15;;;;;;;;;;;;;;;;;;2194383;67;1130;-71
2022/08/24 01:37:49;;;;;;;;;;;;;;;;;;2194641;59;1707;-71
2022/08/24 01:40:36;;;;;;;;;;;;;;;;;;2194371;67;1227;-71
2022/08/24 01:43:09;;;;;;;;;;;;;;;;;;2194092;67;1979;-71
2022/08/24 01:45:42;;;;;;;;;;;;;;;;;;2194689;67;1245;-71
2022/08/24 01:48:16;;;;;;;;;;;;;;;;;;2194502;67;1209;-71
2022/08/24 01:50:50;;;;;;;;;;;;;;;;;;2194692;59;1243;-71
2022/08/24 01:53:23;;;;;;;;;;;;;;;;;;2194761;67;1251;-71
2022/08/24 01:55:59;;;;;;;;;;;;;;;;;;2194400;67;1338;-71
2022/08/24 01:58:32;;;;;;;;;;;;;;;;;;2195543;67;1185;-71
2022/08/24 02:01:05;;;;;;;;;;;;;;;;;;2194677;67;1287;-71
2022/08/24 02:03:38;;;;;;;;;;;;;;;;;;2194496;59;1930;-71
2022/08/24 02:06:12;;;;;;;;;;;;;;;;;;2194281;67;1131;-71
2022/08/24 02:08:45;;;;;;;;;;;;;;;;;;2194496;67;1178;-71
2022/08/24 02:11:21;;;;;;;;;;;;;;;;;;2193993;59;1185;-71
2022/08/24 02:13:54;;;;;;;;;;;;;;;;;;2194318;67;1183;-71
2022/08/24 02:16:27;;;;;;;;;;;;;;;;;;2194590;67;1200;-71
2022/08/24 02:19:00;;;;;;;;;;;;;;;;;;2195362;59;2120;-71
2022/08/24 02:21:34;;;;;;;;;;;;;;;;;;2194829;59;1245;-71
2022/08/24 02:24:07;;;;;;;;;;;;;;;;;;2194635;59;1926;-71
2022/08/24 02:26:43;;;;;;;;;;;;;;;;;;2195334;59;1256;-71
2022/08/24 02:29:17;;;;;;;;;;;;;;;;;;2194615;67;1128;-71
2022/08/24 02:31:50;;;;;;;;;;;;;;;;;;2194573;67;1296;-71
2022/08/24 02:34:23;;;;;;;;;;;;;;;;;;2194782;67;1274;-71
2022/08/24 02:36:56;;;;;;;;;;;;;;;;;;2195117;59;1320;-72
2022/08/24 02:39:30;;;;;;;;;;;;;;;;;;2195016;59;1621;-71
2022/08/24 02:42:06;;;;;;;;;;;;;;;;;;2194555;67;1265;-71
2022/08/24 02:44:39;;;;;;;;;;;;;;;;;;2196160;59;2242;-71
2022/08/24 02:47:12;;;;;;;;;;;;;;;;;;2194819;59;1384;-71
2022/08/24 02:49:47;;;;;;;;;;;;;;;;;;2194683;67;1215;-71
2022/08/24 02:52:20;;;;;;;;;;;;;;;;;;2194771;59;1220;-70
2022/08/24 02:54:53;;;;;;;;;;;;;;;;;;2194664;59;1272;-71
2022/08/24 02:57:29;;;;;;;;;;;;;;;;;;2194851;67;1113;-71
2022/08/24 03:00:02;;;;;;;;;;;;;;;;;;2194232;67;1322;-71
2022/08/24 03:02:35;;;;;;;;;;;;;;;;;;2194717;59;1819;-71
2022/08/24 03:05:09;;;;;;;;;;;;;;;;;;2194348;59;2291;-71
2022/08/24 03:07:43;;;;;;;;;;;;;;;;;;2194972;67;1457;-71
2022/08/24 03:10:16;;;;;;;;;;;;;;;;;;2191343;59;2157;-71
2022/08/24 03:12:52;;;;;;;;;;;;;;;;;;2194993;59;1339;-71
2022/08/24 03:15:25;;;;;;;;;;;;;;;;;;2195182;67;1223;-71
2022/08/24 03:17:59;;;;;;;;;;;;;;;;;;2195295;59;1208;-71
2022/08/24 03:20:32;;;;;;;;;;;;;;;;;;2194963;59;1384;-71
2022/08/24 03:23:06;;;;;;;;;;;;;;;;;;2194687;67;1932;-71
2022/08/24 03:25:39;;;;;;;;;;;;;;;;;;2195190;67;1204;-70
2022/08/24 03:28:16;;;;;;;;;;;;;;;;;;2194572;67;1247;-71
2022/08/24 03:30:49;;;;;;;;;;;;;;;;;;2195016;67;1160;-71
2022/08/24 03:33:22;;;;;;;;;;;;;;;;;;2194938;67;1347;-71
2022/08/24 03:35:55;;;;;;;;;;;;;;;;;;2194882;59;1528;-71
2022/08/24 03:38:29;;;;;;;;;;;;;;;;;;2194761;59;1487;-71
2022/08/24 03:41:02;;;;;;;;;;;;;;;;;;2194444;67;1233;-71
2022/08/24 03:43:48;;;;;;;;;;;;;;;;;;2194692;59;1936;-71
2022/08/24 03:46:22;;;;;;;;;;;;;;;;;;2194404;59;1240;-71
2022/08/24 03:48:56;;;;;;;;;;;;;;;;;;2194594;67;1130;-71
2022/08/24 03:51:30;;;;;;;;;;;;;;;;;;2194643;59;1280;-71
2022/08/24 03:54:04;;;;;;;;;;;;;;;;;;2194474;67;1226;-71
2022/08/24 03:56:37;;;;;;;;;;;;;;;;;;2192116;67;1406;-71
2022/08/24 03:59:13;;;;;;;;;;;;;;;;;;2194729;59;1232;-71
2022/08/24 04:01:46;;;;;;;;;;;;;;;;;;2194973;59;1614;-71
2022/08/24 04:04:19;;;;;;;;;;;;;;;;;;2194519;59;1930;-71
2022/08/24 04:06:53;;;;;;;;;;;;;;;;;;2194884;67;1072;-70
2022/08/24 04:09:26;;;;;;;;;;;;;;;;;;2194603;67;1303;-71
2022/08/24 04:11:59;;;;;;;;;;;;;;;;;;2194816;59;1175;-71
2022/08/24 04:14:35;;;;;;;;;;;;;;;;;;2194417;59;1148;-71
2022/08/24 04:17:09;;;;;;;;;;;;;;;;;;2194825;67;1120;-71
2022/08/24 04:19:56;;;;;;;;;;;;;;;;;;2194933;59;1133;-71
2022/08/24 04:22:30;;;;;;;;;;;;;;;;;;2194893;59;1049;-71
2022/08/24 04:25:03;;;;;;;;;;;;;;;;;;2193918;67;1922;-71
2022/08/24 04:27:36;;;;;;;;;;;;;;;;;;2194756;59;1306;-71
2022/08/24 04:30:13;;;;;;;;;;;;;;;;;;2194560;67;1147;-71
2022/08/24 04:32:47;;;;;;;;;;;;;;;;;;2197950;67;2165;-71
2022/08/24 04:35:20;;;;;;;;;;;;;;;;;;2194545;59;1220;-71
2022/08/24 04:37:53;;;;;;;;;;;;;;;;;;2194990;59;1786;-71
2022/08/24 04:40:27;;;;;;;;;;;;;;;;;;2195031;67;1331;-71
2022/08/24 04:43:00;;;;;;;;;;;;;;;;;;2194750;59;1358;-71
2022/08/24 04:45:39;;;;;;;;;;;;;;;;;;2193751;67;1930;-71
2022/08/24 04:48:13;;;;;;;;;;;;;;;;;;2193800;67;2111;-71
2022/08/24 04:50:46;;;;;;;;;;;;;;;;;;2194993;59;1546;-71
2022/08/24 04:53:19;;;;;;;;;;;;;;;;;;2194523;59;1247;-71
2022/08/24 04:55:53;;;;;;;;;;;;;;;;;;2194717;67;1252;-71
2022/08/24 04:58:26;;;;;;;;;;;;;;;;;;2194327;59;2514;-71
2022/08/24 05:01:02;;;;;;;;;;;;;;;;;;2193809;59;2422;-70
2022/08/24 05:03:35;;;;;;;;;;;;;;;;;;2192226;59;2423;-71
2022/08/24 05:06:08;;;;;;;;;;;;;;;;;;2194065;59;2464;-71
2022/08/24 05:08:42;;;;;;;;;;;;;;;;;;2194299;59;2479;-71
2022/08/24 05:11:16;;;;;;;;;;;;;;;;;;2194213;59;1433;-71
2022/08/24 05:13:49;;;;;;;;;;;;;;;;;;2195272;59;1348;-71
2022/08/24 05:16:25;;;;;;;;;;;;;;;;;;2194859;67;1282;-71
2022/08/24 05:18:59;;;;;;;;;;;;;;;;;;2195125;59;1255;-71
2022/08/24 05:21:32;;;;;;;;;;;;;;;;;;2194747;67;1235;-71
2022/08/24 05:24:06;;;;;;;;;;;;;;;;;;2194646;67;1928;-71
2022/08/24 05:26:39;;;;;;;;;;;;;;;;;;2194681;59;1450;-71
2022/08/24 05:29:13;;;;;;;;;;;;;;;;;;2194783;59;1101;-71
2022/08/24 05:31:49;;;;;;;;;;;;;;;;;;2194298;67;1234;-71
2022/08/24 05:34:22;;;;;;;;;;;;;;;;;;2195004;67;1296;-71
2022/08/24 05:36:55;;;;;;;;;;;;;;;;;;2194941;59;1402;-71
2022/08/24 05:39:29;;;;;;;;;;;;;;;;;;2195043;59;1642;-71
2022/08/24 05:42:03;;;;;;;;;;;;;;;;;;2195000;67;1900;-71
2022/08/24 05:44:36;;;;;;;;;;;;;;;;;;2195018;67;2000;-71
2022/08/24 05:47:12;;;;;;;;;;;;;;;;;;2194878;67;1153;-71
2022/08/24 05:49:45;;;;;;;;;;;;;;;;;;2195054;67;1307;-72
2022/08/24 05:52:18;;;;;;;;;;;;;;;;;;2194928;67;1268;-71
2022/08/24 05:54:53;;;;;;;;;;;;;;;;;;2194528;59;1165;-71
2022/08/24 05:57:28;;;;;;;;;;;;;;;;;;2195333;59;1303;-71
2022/08/24 06:00:01;;;;;;;;;;;;;;;;;;2195426;59;1219;-71
2022/08/24 06:02:37;;;;;;;;;;;;;;;;;;2195463;59;1721;-72
2022/08/24 06:05:10;;;;;;;;;;;;;;;;;;2195228;67;1933;-71
2022/08/24 06:07:43;;;;;;;;;;;;;;;;;;2195727;67;1138;-71
2022/08/24 06:10:17;;;;;;;;;;;;;;;;;;2195576;59;1310;-71
2022/08/24 06:12:50;;;;;;;;;;;;;;;;;;2195624;59;1238;-71
2022/08/24 06:15:23;;;;;;;;;;;;;;;;;;2195709;67;1343;-71
2022/08/24 06:17:59;;;;;;;;;;;;;;;;;;2195361;59;1280;-71
2022/08/24 06:20:33;;;;;;;;;;;;;;;;;;2195086;67;1272;-71
2022/08/24 06:23:06;;;;;;;;;;;;;;;;;;2195416;59;1231;-72
2022/08/24 06:28:31;;;;;;;;;;;;;;;;;;2197008;67;1209;-71
2022/08/24 06:31:05;;;;;;;;;;;;;;;;;;2197591;67;1252;-73
2022/08/24 06:33:42;;;;;;;;;;;;;;;;;;2196596;67;1034;-71
2022/08/24 06:36:15;;;;;;;;;;;;;;;;;;2195609;59;1543;-72
2022/08/24 06:38:48;;;;;;;;;;;;;;;;;;2195669;59;1783;-71
2022/08/24 06:41:22;;;;;;;;;;;;;;;;;;2195317;59;1280;-72
2022/08/24 06:43:55;;;;;;;;;;;;;;;;;;2195237;67;1157;-72
2022/08/24 06:46:28;;;;;;;;;;;;;;;;;;2195437;59;1271;-71
2022/08/24 06:49:04;;;;;;;;;;;;;;;;;;2195408;67;1164;-71
2022/08/24 06:51:37;;;;;;;;;;;;;;;;;;2194810;67;1199;-72
2022/08/24 06:54:10;;;;;;;;;;;;;;;;;;2194992;67;1212;-71
2022/08/24 06:56:44;;;;;;;;;;;;;;;;;;2196142;67;1096;-71
2022/08/24 06:59:17;;;;;;;;;;;;;;;;;;2196080;67;1065;-72
2022/08/24 07:01:50;;;;;;;;;;;;;;;;;;2195773;59;1619;-71
2022/08/24 07:04:28;;;;;;;;;;;;;;;;;;2195919;59;1939;-71
2022/08/24 07:07:01;;;;;;;;;;;;;;;;;;2195262;59;1086;-72
2022/08/24 07:09:34;;;;;;;;;;;;;;;;;;2195576;59;1263;-72
2022/08/24 07:12:08;;;;;;;;;;;;;;;;;;2194441;54;1968;-57
2022/08/24 07:14:41;;;;;;;;;;;;;;;;;;2191709;67;1160;-55
2022/08/24 07:17:14;;;;;;;;;;;;;;;;;;2192584;67;1105;-56
2022/08/24 07:19:50;;;;;;;;;;;;;;;;;;2192190;67;1109;-54
2022/08/24 07:22:23;;;;;;;;;;;;;;;;;;2191931;60;1279;-54
2022/08/24 07:24:56;;;;;;;;;;;;;;;;;;2192330;67;1938;-54
2022/08/24 07:27:29;;;;;;;;;;;;;;;;;;2191972;67;1105;-55
2022/08/24 07:30:02;;;;;;;;;;;;;;;;;;2191404;67;1199;-54
2022/08/24 07:32:36;;;;;;;;;;;;;;;;;;2191951;67;1284;-57
2022/08/24 07:35:12;;;;;;;;;;;;;;;;;;2191794;67;1048;-54
2022/08/24 07:37:45;;;;;;;;;;;;;;;;;;2191462;59;1685;-58
2022/08/24 07:40:18;;;;;;;;;;;;;;;;;;2191613;67;1144;-54
2022/08/24 07:42:52;;;;;;;;;;;;;;;;;;2191445;67;1290;-56
2022/08/24 07:45:25;;;;;;;;;;;;;;;;;;2191656;67;1949;-54
2022/08/24 07:47:58;;;;;;;;;;;;;;;;;;2191666;67;1192;-54
2022/08/24 07:50:36;;;;;;;;;;;;;;;;;;2190877;67;1237;-55
2022/08/24 07:53:09;;;;;;;;;;;;;;;;;;2191749;67;1156;-55
2022/08/24 07:55:42;;;;;;;;;;;;;;;;;;2191954;67;1255;-54
2022/08/24 07:58:15;;;;;;;;;;;;;;;;;;2191481;67;1188;-55
2022/08/24 08:00:49;;;;;;;;;;;;;;;;;;2191187;67;1101;-54
2022/08/24 08:03:24;;;;;;;;;;;;;;;;;;2191990;59;1821;-54
2022/08/24 08:06:01;;;;;;;;;;;;;;;;;;2192495;67;1930;-54
2022/08/24 08:08:36;;;;;;;;;;;;;;;;;;2192185;67;1326;-54
2022/08/24 08:11:10;;;;;;;;;;;;;;;;;;2191793;59;1506;-55
2022/08/24 08:13:43;;;;;;;;;;;;;;;;;;2192266;67;1283;-54
2022/08/24 08:16:19;;;;;;;;;;;;;;;;;;2192440;67;1172;-56
2022/08/24 08:18:53;;;;;;;;;;;;;;;;;;2193287;67;1820;-56
2022/08/24 08:24:18;;;;;;;;;;;;;;;;;;2193010;67;1298;-54
2022/08/24 08:26:52;;;;;;;;;;;;;;;;;;2193412;67;3028;-54
2022/08/24 08:29:25;;;;;;;;;;;;;;;;;;2192668;67;1195;-58
2022/08/24 08:31:59;;;;;;;;;;;;;;;;;;2192814;67;1280;-57
2022/08/24 08:34:32;;;;;;;;;;;;;;;;;;2192686;67;1232;-56
2022/08/24 08:37:09;;;;;;;;;;;;;;;;;;2191528;59;1351;-54
2022/08/24 08:39:42;;;;;;;;;;;;;;;;;;2192148;67;1118;-55
2022/08/24 08:42:34;;;;;;;;;;;;;;;;;;2191794;67;1304;-54
2022/08/24 08:53:27;;;;;;;;;;;;;;;;;;2377369;53;1979;-61
2022/08/24 08:56:04;;;;;;;;;;;;;;;;;;2194655;59;2189;-63
2022/08/24 08:58:47;;;;;;;;;;;;;;;;;;2194989;59;1265;-64
2022/08/24 09:01:25;;;;;;;;;;;;;;;;;;2194489;67;1709;-64
2022/08/24 09:04:13;;;;;;;;;;;;;;;;;;2193424;59;1413;-64
2022/08/24 09:06:58;;;;;;;;;;;;;;;;;;2190591;67;1149;-64
2022/08/24 09:09:45;;;;;;;;;;;;;;;;;;2190889;59;1329;-63
2022/08/24 09:12:24;;;;;;;;;;;;;;;;;;2191271;59;1229;-64
2022/08/24 09:15:13;;;;;;;;;;;;;;;;;;2191178;67;1983;-64
2022/08/24 09:17:52;;;;;;;;;;;;;;;;;;2190999;67;2169;-61
2022/08/24 09:20:31;;;;;;;;;;;;;;;;;;2191136;67;1187;-64
2022/08/24 09:23:10;;;;;;;;;;;;;;;;;;2191269;67;1242;-63
2022/08/24 09:25:51;;;;;;;;;;;;;;;;;;2191216;67;1134;-65
2022/08/24 09:28:34;;;;;;;;;;;;;;;;;;2191207;67;1819;-63
2022/08/24 09:31:22;;;;;;;;;;;;;;;;;;2190593;67;1152;-64
2022/08/24 09:34:05;;;;;;;;;;;;;;;;;;2191084;67;1597;-63
2022/08/24 09:36:48;;;;;;;;;;;;;;;;;;2190384;59;1975;-64
2022/08/24 09:39:36;;;;;;;;;;;;;;;;;;2191212;59;1632;-65
2022/08/24 09:42:28;;;;;;;;;;;;;;;;;;2190802;67;1662;-63
2022/08/24 09:45:16;;;;;;;;;;;;;;;;;;2190702;59;1625;-64
2022/08/24 09:48:08;;;;;;;;;;;;;;;;;;2191806;67;2236;-63
2022/08/24 09:51:00;;;;;;;;;;;;;;;;;;2193045;67;1025;-65
2022/08/24 09:53:45;;;;;;;;;;;;;;;;;;2190847;59;1205;-64
2022/08/24 09:56:26;;;;;;;;;;;;;;;;;;2190733;67;1934;-63
2022/08/24 09:59:06;;;;;;;;;;;;;;;;;;2190803;67;1163;-64
2022/08/24 10:01:45;;;;;;;;;;;;;;;;;;2191130;59;1694;-64
2022/08/24 10:04:24;;;;;;;;;;;;;;;;;;2190978;59;1566;-64
2022/08/24 10:07:04;;;;;;;;;;;;;;;;;;2191015;67;1298;-64
2022/08/24 10:09:55;;;;;;;;;;;;;;;;;;2190600;59;1284;-64
2022/08/24 10:12:35;;;;;;;;;;;;;;;;;;2191042;59;1599;-64
2022/08/24 10:15:12;;;;;;;;;;;;;;;;;;2190870;67;1850;-63
2022/08/24 10:17:50;;;;;;;;;;;;;;;;;;2190703;67;1113;-63
2022/08/24 10:20:25;;;;;;;;;;;;;;;;;;2191124;67;1236;-64
2022/08/24 10:23:28;;;;;;;;;;;;;;;;;;2190834;67;1158;-63
2022/08/24 10:26:05;;;;;;;;;;;;;;;;;;2190863;60;1122;-64
2022/08/24 10:28:46;;;;;;;;;;;;;;;;;;2190919;67;1152;-63
2022/08/24 10:31:20;;;;;;;;;;;;;;;;;;2191138;59;1053;-64
2022/08/24 10:34:03;;;;;;;;;;;;;;;;;;2190748;67;1260;-64
2022/08/24 10:36:59;;;;;;;;;;;;;;;;;;2190911;59;1937;-64
2022/08/24 10:39:45;;;;;;;;;;;;;;;;;;2191124;59;1975;-63
2022/08/24 10:45:40;;;;;;;;;;;;;;;;;;2182265;67;1227;-64
2022/08/24 10:48:28;;;;;;;;;;;;;;;;;;2191501;67;1231;-64
2022/08/24 10:51:08;;;;;;;;;;;;;;;;;;2191272;67;1053;-64
2022/08/24 10:53:42;;;;;;;;;;;;;;;;;;2191598;59;1256;-63
2022/08/24 10:56:17;;;;;;;;;;;;;;;;;;2191176;67;2001;-62
2022/08/24 10:58:59;;;;;;;;;;;;;;;;;;2191450;59;1088;-63
2022/08/24 11:01:36;;;;;;;;;;;;;;;;;;2191688;59;1777;-63
2022/08/24 11:04:11;;;;;;;;;;;;;;;;;;2190914;59;1660;-65
2022/08/24 11:06:45;;;;;;;;;;;;;;;;;;2191648;67;1147;-63
2022/08/24 11:09:19;;;;;;;;;;;;;;;;;;2191959;59;1205;-65
2022/08/24 11:11:52;;;;;;;;;;;;;;;;;;2191149;59;1497;-63
2022/08/24 11:14:27;;;;;;;;;;;;;;;;;;2191792;67;1307;-63
2022/08/24 11:17:15;;;;;;;;;;;;;;;;;;2191135;67;1920;-64
2022/08/24 11:19:48;;;;;;;;;;;;;;;;;;2191102;67;1155;-65
2022/08/24 11:22:39;;;;;;;;;;;;;;;;;;2191628;67;1241;-64
2022/08/24 11:25:16;;;;;;;;;;;;;;;;;;2191310;67;1225;-62
2022/08/24 11:27:52;;;;;;;;;;;;;;;;;;2191293;67;1356;-63
2022/08/24 11:30:27;;;;;;;;;;;;;;;;;;2191430;67;1190;-63
2022/08/24 11:33:04;;;;;;;;;;;;;;;;;;2191225;67;1239;-64
2022/08/24 11:35:38;;;;;;;;;;;;;;;;;;2191515;59;1388;-64
2022/08/24 11:38:17;;;;;;;;;;;;;;;;;;2191245;59;1706;-64
2022/08/24 11:40:52;;;;;;;;;;;;;;;;;;2191347;67;1080;-65
2022/08/24 11:43:43;;;;;;;;;;;;;;;;;;2192012;59;1386;-64
2022/08/24 11:46:22;;;;;;;;;;;;;;;;;;2191704;67;2097;-64
2022/08/24 11:49:04;;;;;;;;;;;;;;;;;;2191389;67;1123;-62
2022/08/24 11:51:42;;;;;;;;;;;;;;;;;;2191159;67;1148;-64
2022/08/24 11:54:23;;;;;;;;;;;;;;;;;;2191538;59;1237;-61
2022/08/24 11:57:04;;;;;;;;;;;;;;;;;;2191389;67;1972;-61
2022/08/24 11:59:48;;;;;;;;;;;;;;;;;;2190918;67;1191;-63
2022/08/24 12:02:25;;;;;;;;;;;;;;;;;;2191280;59;1674;-63
2022/08/24 12:05:05;;;;;;;;;;;;;;;;;;2191258;59;1225;-62
2022/08/24 12:07:48;;;;;;;;;;;;;;;;;;2191206;67;1167;-63
2022/08/24 12:10:27;;;;;;;;;;;;;;;;;;2191910;59;1469;-64
2022/08/24 12:13:03;;;;;;;;;;;;;;;;;;2190641;59;1207;-62
2022/08/24 12:15:44;;;;;;;;;;;;;;;;;;2191331;67;1218;-62
2022/08/24 12:18:24;;;;;;;;;;;;;;;;;;2191171;67;1991;-64
2022/08/24 12:21:00;;;;;;;;;;;;;;;;;;2191143;67;1305;-63
2022/08/24 12:23:36;;;;;;;;;;;;;;;;;;2191010;67;1633;-60
2022/08/24 12:26:11;;;;;;;;;;;;;;;;;;2191094;67;1134;-61
2022/08/24 12:28:47;;;;;;;;;;;;;;;;;;2191064;67;1136;-64
2022/08/24 12:31:23;;;;;;;;;;;;;;;;;;2191299;67;1270;-63
2022/08/24 12:33:58;;;;;;;;;;;;;;;;;;2191496;67;1241;-64
2022/08/24 12:36:45;;;;;;;;;;;;;;;;;;2191156;59;1938;-63
2022/08/24 12:39:21;;;;;;;;;;;;;;;;;;2191555;59;1602;-64
2022/08/24 12:42:00;;;;;;;;;;;;;;;;;;2191383;67;1081;-62
2022/08/24 12:44:42;;;;;;;;;;;;;;;;;;2191758;59;1427;-63
2022/08/24 12:47:21;;;;;;;;;;;;;;;;;;2191293;67;1090;-64
2022/08/24 12:49:56;;;;;;;;;;;;;;;;;;2191374;67;1111;-62
2022/08/24 12:52:46;;;;;;;;;;;;;;;;;;2191642;67;1052;-64
2022/08/24 12:55:49;;;;;;;;;;;;;;;;;;2191118;59;1215;-58
2022/08/24 12:58:32;;;;;;;;;;;;;;;;;;2190861;67;1946;-63
2022/08/24 13:01:07;;;;;;;;;;;;;;;;;;2190364;67;1135;-63
2022/08/24 13:03:41;;;;;;;;;;;;;;;;;;2191201;59;1763;-62
2022/08/24 13:06:20;;;;;;;;;;;;;;;;;;2191017;67;1158;-62
2022/08/24 13:09:07;;;;;;;;;;;;;;;;;;2191095;67;1093;-64
2022/08/24 13:11:40;;;;;;;;;;;;;;;;;;2190948;59;1456;-63
2022/08/24 13:14:19;;;;;;;;;;;;;;;;;;2191363;67;1206;-61
2022/08/24 13:17:08;;;;;;;;;;;;;;;;;;2191465;67;1926;-63
2022/08/24 13:19:43;;;;;;;;;;;;;;;;;;2191504;67;1214;-62
2022/08/24 13:22:34;;;;;;;;;;;;;;;;;;2191694;67;1146;-62
2022/08/24 13:25:26;;;;;;;;;;;;;;;;;;2191140;67;1258;-59
2022/08/24 13:28:08;;;;;;;;;;;;;;;;;;2190750;67;1099;-63
2022/08/24 13:30:59;;;;;;;;;;;;;;;;;;2191194;67;1198;-62
2022/08/24 13:33:35;;;;;;;;;;;;;;;;;;2191566;59;1212;-64
2022/08/24 13:36:27;;;;;;;;;;;;;;;;;;2190871;59;1374;-63
2022/08/24 13:39:07;;;;;;;;;;;;;;;;;;2190887;59;1682;-64
2022/08/24 13:41:50;;;;;;;;;;;;;;;;;;2191317;67;1258;-63
2022/08/24 13:44:56;;;;;;;;;;;;;;;;;;2190881;59;1340;-61
2022/08/24 13:47:32;;;;;;;;;;;;;;;;;;2189259;67;1064;-63
2022/08/24 13:50:11;;;;;;;;;;;;;;;;;;2182731;67;1414;-64
2022/08/24 13:52:49;;;;;;;;;;;;;;;;;;2189689;67;1169;-61
2022/08/24 13:55:43;;;;;;;;;;;;;;;;;;2191457;59;1333;-64
2022/08/24 13:58:24;;;;;;;;;;;;;;;;;;2190214;60;2767;-63
2022/08/24 14:01:00;;;;;;;;;;;;;;;;;;2190758;67;1193;-63
2022/08/24 14:03:51;;;;;;;;;;;;;;;;;;2191132;59;2087;-64
2022/08/24 14:06:29;;;;;;;;;;;;;;;;;;2190966;67;1160;-64
2022/08/24 14:09:10;;;;;;;;;;;;;;;;;;2190937;60;1413;-63
2022/08/24 14:11:50;;;;;;;;;;;;;;;;;;2190923;59;1421;-63
2022/08/24 14:14:35;;;;;;;;;;;;;;;;;;2191257;67;1253;-61
2022/08/24 14:20:04;;;;;;;;;;;;;;;;;;2191579;67;1047;-64
2022/08/24 14:22:41;;;;;;;;;;;;;;;;;;2191797;67;1109;-63
2022/08/24 14:25:19;;;;;;;;;;;;;;;;;;2191876;67;1242;-64
2022/08/24 14:28:13;;;;;;;;;;;;;;;;;;2191409;67;1222;-63
2022/08/24 14:30:51;;;;;;;;;;;;;;;;;;2191389;67;1595;-63
2022/08/24 14:33:27;;;;;;;;;;;;;;;;;;2191990;67;1277;-61
2022/08/24 14:36:09;;;;;;;;;;;;;;;;;;2191281;59;1453;-62
2022/08/24 14:38:53;;;;;;;;;;;;;;;;;;2191695;59;1970;-62
2022/08/24 14:41:41;;;;;;;;;;;;;;;;;;2191571;67;1308;-64
2022/08/24 14:44:21;;;;;;;;;;;;;;;;;;2191233;59;1277;-62
2022/08/24 14:47:02;;;;;;;;;;;;;;;;;;2191624;67;1307;-62
2022/08/24 14:49:37;;;;;;;;;;;;;;;;;;2190869;67;1196;-63
2022/08/24 14:52:25;;;;;;;;;;;;;;;;;;2191772;67;1174;-64
2022/08/24 14:55:05;;;;;;;;;;;;;;;;;;2191847;59;1600;-61
2022/08/24 14:57:45;;;;;;;;;;;;;;;;;;2191403;67;1990;-61
2022/08/24 15:00:20;;;;;;;;;;;;;;;;;;2191952;67;1174;-62
2022/08/24 15:03:10;;;;;;;;;;;;;;;;;;2191046;59;1692;-61
2022/08/24 15:05:46;;;;;;;;;;;;;;;;;;2190899;67;1139;-63
2022/08/24 15:08:30;;;;;;;;;;;;;;;;;;2191744;67;1122;-64
2022/08/24 15:11:08;;;;;;;;;;;;;;;;;;2191303;59;1334;-63
2022/08/24 15:13:45;;;;;;;;;;;;;;;;;;2191668;67;1289;-63
2022/08/24 15:16:20;;;;;;;;;;;;;;;;;;2191747;67;1222;-62
2022/08/24 15:19:01;;;;;;;;;;;;;;;;;;2191122;67;1993;-63
2022/08/24 15:21:42;;;;;;;;;;;;;;;;;;2191380;67;1182;-62
2022/08/24 15:24:19;;;;;;;;;;;;;;;;;;2191428;67;1154;-62
2022/08/24 15:26:59;;;;;;;;;;;;;;;;;;2191201;67;1080;-62
2022/08/24 15:29:33;;;;;;;;;;;;;;;;;;2190394;67;1098;-63
2022/08/24 15:32:08;;;;;;;;;;;;;;;;;;2190954;67;1116;-62
2022/08/24 15:34:47;;;;;;;;;;;;;;;;;;2190789;67;1199;-64
2022/08/24 15:37:27;;;;;;;;;;;;;;;;;;2191397;59;1944;-64
2022/08/24 15:40:01;;;;;;;;;;;;;;;;;;2191031;67;1107;-62
2022/08/24 15:42:37;;;;;;;;;;;;;;;;;;2191607;59;1343;-64
2022/08/24 15:45:11;;;;;;;;;;;;;;;;;;2191128;67;1210;-64
2022/08/24 15:47:46;;;;;;;;;;;;;;;;;;2190968;59;2431;-63
2022/08/24 15:50:25;;;;;;;;;;;;;;;;;;2191022;67;1159;-61
2022/08/24 15:53:00;;;;;;;;;;;;;;;;;;2190926;67;1196;-62
2022/08/24 15:55:39;;;;;;;;;;;;;;;;;;2190729;67;1227;-62
2022/08/24 15:58:21;;;;;;;;;;;;;;;;;;2191280;67;1938;-64
2022/08/24 16:03:48;;;;;;;;;;;;;;;;;;2190725;59;1827;-64
2022/08/24 16:06:27;;;;;;;;;;;;;;;;;;2191175;67;1226;-64
2022/08/24 16:09:02;;;;;;;;;;;;;;;;;;2191279;59;1212;-62
2022/08/24 16:11:37;;;;;;;;;;;;;;;;;;2191408;59;1502;-64
2022/08/24 16:14:13;;;;;;;;;;;;;;;;;;2191330;67;1291;-62
2022/08/24 16:16:47;;;;;;;;;;;;;;;;;;2191332;67;1501;-64
2022/08/24 16:19:23;;;;;;;;;;;;;;;;;;2191330;67;1979;-64
2022/08/24 16:22:01;;;;;;;;;;;;;;;;;;2191290;67;1088;-63
2022/08/24 16:24:36;;;;;;;;;;;;;;;;;;2190978;67;1915;-63
2022/08/24 16:27:11;;;;;;;;;;;;;;;;;;2191198;67;1243;-64
2022/08/24 16:29:51;;;;;;;;;;;;;;;;;;2191010;67;1101;-63
2022/08/24 16:32:25;;;;;;;;;;;;;;;;;;2191645;67;1117;-60
2022/08/24 16:35:17;;;;;;;;;;;;;;;;;;2191152;67;1296;-62
2022/08/24 16:37:54;;;;;;;;;;;;;;;;;;2191275;59;2002;-64
2022/08/24 16:40:28;;;;;;;;;;;;;;;;;;2191569;67;1255;-63
2022/08/24 16:43:01;;;;;;;;;;;;;;;;;;2190929;67;1401;-63
2022/08/24 16:45:35;;;;;;;;;;;;;;;;;;2191552;67;1159;-63
2022/08/24 16:48:08;;;;;;;;;;;;;;;;;;2190930;67;1100;-64
2022/08/24 16:50:41;;;;;;;;;;;;;;;;;;2191100;67;1096;-64
2022/08/24 16:53:17;;;;;;;;;;;;;;;;;;2191533;59;1169;-62
2022/08/24 16:55:50;;;;;;;;;;;;;;;;;;2190845;67;1304;-64
2022/08/24 16:58:26;;;;;;;;;;;;;;;;;;2191265;67;1938;-63
2022/08/24 17:00:59;;;;;;;;;;;;;;;;;;2190718;67;1087;-63
2022/08/24 17:03:33;;;;;;;;;;;;;;;;;;2191706;59;2042;-64
2022/08/24 17:06:11;;;;;;;;;;;;;;;;;;2190878;67;1076;-62
2022/08/24 17:08:47;;;;;;;;;;;;;;;;;;2191270;67;1243;-63
2022/08/24 17:11:20;;;;;;;;;;;;;;;;;;2190958;59;1529;-62
2022/08/24 17:13:53;;;;;;;;;;;;;;;;;;2191329;67;1281;-63
2022/08/24 17:16:27;;;;;;;;;;;;;;;;;;2191396;67;1243;-63
2022/08/24 17:19:01;;;;;;;;;;;;;;;;;;2190695;67;1938;-64
2022/08/24 17:21:34;;;;;;;;;;;;;;;;;;2191108;67;1258;-64
2022/08/24 17:24:11;;;;;;;;;;;;;;;;;;2190877;67;1220;-64
2022/08/24 17:26:44;;;;;;;;;;;;;;;;;;2190804;67;1163;-62
2022/08/24 17:29:18;;;;;;;;;;;;;;;;;;2191083;67;1094;-61
2022/08/24 17:31:52;;;;;;;;;;;;;;;;;;2190843;67;1135;-64
2022/08/24 17:34:26;;;;;;;;;;;;;;;;;;2191100;67;1278;-62
2022/08/24 17:37:00;;;;;;;;;;;;;;;;;;2190823;59;1421;-60
2022/08/24 17:39:35;;;;;;;;;;;;;;;;;;2191014;59;2003;-62
2022/08/24 17:42:09;;;;;;;;;;;;;;;;;;2190923;67;1206;-64
2022/08/24 17:44:43;;;;;;;;;;;;;;;;;;2191102;60;1404;-63
2022/08/24 17:47:17;;;;;;;;;;;;;;;;;;2191345;67;1180;-63
2022/08/24 17:49:50;;;;;;;;;;;;;;;;;;2190810;67;996;-63
2022/08/24 17:52:23;;;;;;;;;;;;;;;;;;2191259;67;1305;-60
2022/08/24 17:54:59;;;;;;;;;;;;;;;;;;2191066;59;1242;-60
2022/08/24 17:57:32;;;;;;;;;;;;;;;;;;2191121;67;1201;-63
2022/08/24 18:00:06;;;;;;;;;;;;;;;;;;2190600;67;2008;-62
2022/08/24 18:02:39;;;;;;;;;;;;;;;;;;2189942;59;2843;-62
2022/08/24 18:05:13;;;;;;;;;;;;;;;;;;2189571;59;2436;-63
2022/08/24 18:07:49;;;;;;;;;;;;;;;;;;2190461;59;2412;-59
2022/08/24 18:10:26;;;;;;;;;;;;;;;;;;2190226;59;2540;-62
2022/08/24 18:13:00;;;;;;;;;;;;;;;;;;2190608;59;1373;-61
2022/08/24 18:15:35;;;;;;;;;;;;;;;;;;2191089;59;1849;-61
2022/08/24 18:18:10;;;;;;;;;;;;;;;;;;2190808;59;1927;-63
2022/08/24 18:20:43;;;;;;;;;;;;;;;;;;2191025;67;1136;-62
2022/08/24 18:23:16;;;;;;;;;;;;;;;;;;2191096;67;1199;-61
2022/08/24 18:25:53;;;;;;;;;;;;;;;;;;2190740;67;994;-62
2022/08/24 18:28:26;;;;;;;;;;;;;;;;;;2190973;59;1235;-62
2022/08/24 18:30:59;;;;;;;;;;;;;;;;;;2190852;67;1919;-62
2022/08/24 18:33:32;;;;;;;;;;;;;;;;;;2191053;67;1197;-62
2022/08/24 18:36:05;;;;;;;;;;;;;;;;;;2190442;59;1425;-61
2022/08/24 18:38:39;;;;;;;;;;;;;;;;;;2190866;67;1992;-59
2022/08/24 18:41:15;;;;;;;;;;;;;;;;;;2190942;67;1101;-63
2022/08/24 18:43:48;;;;;;;;;;;;;;;;;;2191122;59;1705;-60
2022/08/24 18:46:21;;;;;;;;;;;;;;;;;;2191050;67;1231;-59
2022/08/24 18:48:54;;;;;;;;;;;;;;;;;;2190347;67;1111;-59
2022/08/24 18:51:28;;;;;;;;;;;;;;;;;;2191119;67;1201;-60
2022/08/24 18:54:02;;;;;;;;;;;;;;;;;;2190707;59;1192;-63
2022/08/24 18:56:38;;;;;;;;;;;;;;;;;;2190896;67;1146;-63
2022/08/24 18:59:13;;;;;;;;;;;;;;;;;;2190704;67;1930;-62
2022/08/24 19:04:39;;;;;;;;;;;;;;;;;;2190680;60;1333;-63
2022/08/24 19:07:13;;;;;;;;;;;;;;;;;;2191539;67;1223;-63
2022/08/24 19:09:46;;;;;;;;;;;;;;;;;;2191782;59;1252;-62
2022/08/24 19:12:22;;;;;;;;;;;;;;;;;;2191507;59;1235;-61
2022/08/24 19:14:57;;;;;;;;;;;;;;;;;;2191649;67;1245;-63
2022/08/24 19:17:30;;;;;;;;;;;;;;;;;;2191174;67;1212;-61
2022/08/24 19:20:04;;;;;;;;;;;;;;;;;;2191302;59;1933;-62
2022/08/24 19:22:37;;;;;;;;;;;;;;;;;;2191461;67;1131;-63
2022/08/24 19:25:14;;;;;;;;;;;;;;;;;;2191618;67;1230;-62
2022/08/24 19:27:50;;;;;;;;;;;;;;;;;;2191352;67;1259;-62